ESGJ/JKG METAR and TAF weather

Enter ICAO airport designator
Station Type Date Time Source
ESGJ METAR 2019/12/11 17:20 UTC NOAA

ESGJ 111720Z 17006KT 4700 BR OVC002 03/03 Q1002


Station Type Date Time Source
ESGJ Decoded METAR 2019/12/11 17:20 UTC NOAA

Jonkoping Flygplats, Sweden (ESGJ) 57-46N 014-05E 232M
Dec 11, 2019 - 12:20 PM EST / 2019.12.11 1720 UTC
Wind: from the S (170 degrees) at 7 MPH (6 KT):0
Visibility: 2 mile(s):0
Sky conditions: overcast
Weather: mist
Temperature: 37 F (3 C)
Dew Point: 37 F (3 C)
Relative Humidity: 100%
Pressure (altimeter): 29.59 in. Hg (1002 hPa)
ob: ESGJ 111720Z 17006KT 4700 BR OVC002 03/03 Q1002
cycle: 17

Station Type Date Time Source
ESGJ TAF 2015/05/01 23:06 UTC NOAA

TAF TAF ESGJ 302359Z 3023/0101 CNL

Example: see airport list